sensor_id;sensor_type;location;lat;lon;timestamp;pressure;altitude;pressure_sealevel;temperature;humidity
73101;BME280;61288;53.446;-2.266;2022-09-13T00:01:30;101096.47;;;9.97;95.92
73101;BME280;61288;53.446;-2.266;2022-09-13T00:03:55;101100.09;;;9.92;95.96
73101;BME280;61288;53.446;-2.266;2022-09-13T00:06:21;101103.56;;;9.91;97.50
73101;BME280;61288;53.446;-2.266;2022-09-13T00:08:46;101097.69;;;9.86;96.81
73101;BME280;61288;53.446;-2.266;2022-09-13T00:11:18;101093.63;;;9.77;95.93
73101;BME280;61288;53.446;-2.266;2022-09-13T00:13:45;101080.88;;;9.71;95.56
73101;BME280;61288;53.446;-2.266;2022-09-13T00:16:15;101087.88;;;9.67;95.98
73101;BME280;61288;53.446;-2.266;2022-09-13T00:18:42;101090.69;;;9.59;95.13
73101;BME280;61288;53.446;-2.266;2022-09-13T00:21:10;101099.28;;;9.61;96.10
73101;BME280;61288;53.446;-2.266;2022-09-13T00:23:37;101099.28;;;9.61;96.01
73101;BME280;61288;53.446;-2.266;2022-09-13T00:26:08;101097.56;;;9.60;96.39
73101;BME280;61288;53.446;-2.266;2022-09-13T00:28:35;101093.28;;;9.59;96.83
73101;BME280;61288;53.446;-2.266;2022-09-13T00:31:07;101088.19;;;9.58;96.76
73101;BME280;61288;53.446;-2.266;2022-09-13T00:33:33;101090.09;;;9.51;96.41
73101;BME280;61288;53.446;-2.266;2022-09-13T00:36:05;101086.84;;;9.44;96.26
73101;BME280;61288;53.446;-2.266;2022-09-13T00:38:31;101090.56;;;9.35;95.54
73101;BME280;61288;53.446;-2.266;2022-09-13T00:40:59;101095.94;;;9.28;95.34
73101;BME280;61288;53.446;-2.266;2022-09-13T00:46:20;101089.19;;;9.22;96.17
73101;BME280;61288;53.446;-2.266;2022-09-13T00:48:50;101096.22;;;9.18;95.85
73101;BME280;61288;53.446;-2.266;2022-09-13T00:51:17;101090.34;;;9.13;95.21
73101;BME280;61288;53.446;-2.266;2022-09-13T00:53:47;101086.09;;;9.10;95.96
73101;BME280;61288;53.446;-2.266;2022-09-13T00:56:36;101080.94;;;9.09;95.91
73101;BME280;61288;53.446;-2.266;2022-09-13T00:59:11;101071.50;;;9.08;96.25
73101;BME280;61288;53.446;-2.266;2022-09-13T01:01:42;101083.63;;;9.06;96.04
73101;BME280;61288;53.446;-2.266;2022-09-13T01:04:09;101081.13;;;9.03;95.67
73101;BME280;61288;53.446;-2.266;2022-09-13T01:06:37;101082.88;;;9.02;95.80
73101;BME280;61288;53.446;-2.266;2022-09-13T01:09:05;101083.69;;;9.03;95.98
73101;BME280;61288;53.446;-2.266;2022-09-13T01:11:46;101069.88;;;9.04;96.31
73101;BME280;61288;53.446;-2.266;2022-09-13T01:14:16;101082.63;;;9.10;96.89
73101;BME280;61288;53.446;-2.266;2022-09-13T01:16:42;101083.28;;;9.18;98.53
73101;BME280;61288;53.446;-2.266;2022-09-13T01:19:08;101090.16;;;9.19;98.07
73101;BME280;61288;53.446;-2.266;2022-09-13T01:22:23;101070.53;;;9.12;96.57
73101;BME280;61288;53.446;-2.266;2022-09-13T01:44:01;101075.94;;;9.03;97.42
73101;BME280;61288;53.446;-2.266;2022-09-13T01:51:47;101056.34;;;8.95;97.60
73101;BME280;61288;53.446;-2.266;2022-09-13T01:56:56;101040.06;;;8.92;97.67
73101;BME280;61288;53.446;-2.266;2022-09-13T02:02:28;101048.16;;;8.79;96.31
73101;BME280;61288;53.446;-2.266;2022-09-13T02:05:41;101043.25;;;8.70;96.09
73101;BME280;61288;53.446;-2.266;2022-09-13T02:08:14;101043.47;;;8.62;95.63
73101;BME280;61288;53.446;-2.266;2022-09-13T02:10:51;101045.22;;;8.62;96.17
73101;BME280;61288;53.446;-2.266;2022-09-13T02:13:23;101052.91;;;8.63;96.48
73101;BME280;61288;53.446;-2.266;2022-09-13T02:15:54;101052.97;;;8.62;96.61
73101;BME280;61288;53.446;-2.266;2022-09-13T02:20:52;101069.53;;;8.53;96.84
73101;BME280;61288;53.446;-2.266;2022-09-13T02:23:31;101053.16;;;8.54;97.80
73101;BME280;61288;53.446;-2.266;2022-09-13T02:26:00;101055.91;;;8.46;96.78
73101;BME280;61288;53.446;-2.266;2022-09-13T02:28:35;101049.94;;;8.43;96.52
73101;BME280;61288;53.446;-2.266;2022-09-13T02:31:06;101055.19;;;8.39;96.56
73101;BME280;61288;53.446;-2.266;2022-09-13T02:33:38;101054.44;;;8.36;96.32
73101;BME280;61288;53.446;-2.266;2022-09-13T02:36:09;101051.78;;;8.39;96.95
73101;BME280;61288;53.446;-2.266;2022-09-13T02:39:02;101052.59;;;8.41;97.29
73101;BME280;61288;53.446;-2.266;2022-09-13T02:41:50;101049.03;;;8.45;97.62
73101;BME280;61288;53.446;-2.266;2022-09-13T02:44:38;101058.56;;;8.43;97.42
73101;BME280;61288;53.446;-2.266;2022-09-13T02:47:16;101050.97;;;8.37;96.79
73101;BME280;61288;53.446;-2.266;2022-09-13T02:55:21;101053.75;;;8.29;96.57
73101;BME280;61288;53.446;-2.266;2022-09-13T03:00:18;101064.06;;;8.29;96.86
73101;BME280;61288;53.446;-2.266;2022-09-13T03:02:45;101062.38;;;8.28;96.88
73101;BME280;61288;53.446;-2.266;2022-09-13T03:05:13;101062.34;;;8.30;97.62
73101;BME280;61288;53.446;-2.266;2022-09-13T03:07:38;101063.25;;;8.29;97.29
73101;BME280;61288;53.446;-2.266;2022-09-13T03:10:08;101064.88;;;8.31;98.33
73101;BME280;61288;53.446;-2.266;2022-09-13T03:13:24;101063.19;;;8.30;97.94
73101;BME280;61288;53.446;-2.266;2022-09-13T03:18:34;101076.16;;;8.29;97.64
73101;BME280;61288;53.446;-2.266;2022-09-13T03:29:54;101065.53;;;8.05;96.51
73101;BME280;61288;53.446;-2.266;2022-09-13T03:35:27;101061.34;;;7.99;96.85
73101;BME280;61288;53.446;-2.266;2022-09-13T03:40:37;101069.19;;;7.96;97.17
73101;BME280;61288;53.446;-2.266;2022-09-13T03:45:41;101071.91;;;7.90;96.67
73101;BME280;61288;53.446;-2.266;2022-09-13T03:48:09;101067.56;;;7.92;97.19
73101;BME280;61288;53.446;-2.266;2022-09-13T03:50:38;101061.53;;;7.91;97.29
73101;BME280;61288;53.446;-2.266;2022-09-13T03:53:10;101065.16;;;7.84;96.49
73101;BME280;61288;53.446;-2.266;2022-09-13T03:55:41;101067.00;;;7.77;96.09
73101;BME280;61288;53.446;-2.266;2022-09-13T03:58:16;101073.91;;;7.77;96.32
73101;BME280;61288;53.446;-2.266;2022-09-13T04:00:43;101070.47;;;7.76;96.51
73101;BME280;61288;53.446;-2.266;2022-09-13T04:03:10;101071.34;;;7.75;96.44
73101;BME280;61288;53.446;-2.266;2022-09-13T04:05:36;101069.78;;;7.70;95.88
73101;BME280;61288;53.446;-2.266;2022-09-13T04:08:04;101063.91;;;7.63;95.70
73101;BME280;61288;53.446;-2.266;2022-09-13T04:10:31;101069.88;;;7.65;96.31
73101;BME280;61288;53.446;-2.266;2022-09-13T04:12:59;101070.69;;;7.67;96.70
73101;BME280;61288;53.446;-2.266;2022-09-13T04:15:27;101073.28;;;7.67;96.56
73101;BME280;61288;53.446;-2.266;2022-09-13T04:17:52;101073.31;;;7.65;96.50
73101;BME280;61288;53.446;-2.266;2022-09-13T04:20:18;101068.22;;;7.62;97.17
73101;BME280;61288;53.446;-2.266;2022-09-13T04:22:52;101075.09;;;7.62;97.19
73101;BME280;61288;53.446;-2.266;2022-09-13T04:25:19;101074.28;;;7.60;96.88
73101;BME280;61288;53.446;-2.266;2022-09-13T04:27:44;101076.91;;;7.58;96.78
73101;BME280;61288;53.446;-2.266;2022-09-13T04:32:54;101078.56;;;7.62;97.94
73101;BME280;61288;53.446;-2.266;2022-09-13T04:35:24;101082.81;;;7.63;97.79
73101;BME280;61288;53.446;-2.266;2022-09-13T04:37:50;101081.22;;;7.58;97.08
73101;BME280;61288;53.446;-2.266;2022-09-13T04:40:16;101077.91;;;7.53;96.79
73101;BME280;61288;53.446;-2.266;2022-09-13T04:42:43;101077.81;;;7.56;97.71
73101;BME280;61288;53.446;-2.266;2022-09-13T04:45:09;101080.50;;;7.51;97.26
73101;BME280;61288;53.446;-2.266;2022-09-13T04:47:34;101082.19;;;7.52;97.58
73101;BME280;61288;53.446;-2.266;2022-09-13T04:50:00;101077.97;;;7.49;97.27
73101;BME280;61288;53.446;-2.266;2022-09-13T04:52:28;101084.03;;;7.45;97.19
73101;BME280;61288;53.446;-2.266;2022-09-13T04:54:53;101084.97;;;7.43;97.41
73101;BME280;61288;53.446;-2.266;2022-09-13T04:57:19;101094.44;;;7.42;97.42
73101;BME280;61288;53.446;-2.266;2022-09-13T04:59:44;101089.31;;;7.41;97.44
73101;BME280;61288;53.446;-2.266;2022-09-13T05:02:10;101083.28;;;7.40;97.43
73101;BME280;61288;53.446;-2.266;2022-09-13T05:04:35;101076.50;;;7.36;97.00
73101;BME280;61288;53.446;-2.266;2022-09-13T05:07:01;101074.81;;;7.35;96.86
73101;BME280;61288;53.446;-2.266;2022-09-13T05:09:26;101081.66;;;7.36;96.75
73101;BME280;61288;53.446;-2.266;2022-09-13T05:11:53;101073.09;;;7.35;96.67
73101;BME280;61288;53.446;-2.266;2022-09-13T05:14:19;101068.91;;;7.31;96.50
73101;BME280;61288;53.446;-2.266;2022-09-13T05:16:44;101082.69;;;7.29;96.44
73101;BME280;61288;53.446;-2.266;2022-09-13T05:19:10;101088.72;;;7.26;96.17
73101;BME280;61288;53.446;-2.266;2022-09-13T05:21:37;101081.94;;;7.23;96.75
73101;BME280;61288;53.446;-2.266;2022-09-13T05:24:02;101083.56;;;7.28;97.56
73101;BME280;61288;53.446;-2.266;2022-09-13T05:26:29;101075.81;;;7.29;97.64
73101;BME280;61288;53.446;-2.266;2022-09-13T05:28:58;101082.84;;;7.21;96.75
73101;BME280;61288;53.446;-2.266;2022-09-13T05:31:29;101081.94;;;7.23;97.67
73101;BME280;61288;53.446;-2.266;2022-09-13T05:33:58;101086.28;;;7.21;97.29
73101;BME280;61288;53.446;-2.266;2022-09-13T05:36:24;101089.72;;;7.20;97.23
73101;BME280;61288;53.446;-2.266;2022-09-13T05:38:52;101087.22;;;7.17;97.07
73101;BME280;61288;53.446;-2.266;2022-09-13T05:41:18;101088.97;;;7.15;97.00
73101;BME280;61288;53.446;-2.266;2022-09-13T05:43:43;101080.38;;;7.15;96.74
73101;BME280;61288;53.446;-2.266;2022-09-13T05:46:14;101077.00;;;7.13;96.57
73101;BME280;61288;53.446;-2.266;2022-09-13T05:48:41;101075.28;;;7.13;96.95
73101;BME280;61288;53.446;-2.266;2022-09-13T05:51:11;101075.22;;;7.16;97.61
73101;BME280;61288;53.446;-2.266;2022-09-13T05:53:39;101067.47;;;7.16;97.44
73101;BME280;61288;53.446;-2.266;2022-09-13T05:56:09;101071.84;;;7.13;96.74
73101;BME280;61288;53.446;-2.266;2022-09-13T05:58:39;101075.22;;;7.15;96.91
73101;BME280;61288;53.446;-2.266;2022-09-13T06:01:05;101075.22;;;7.16;97.17
73101;BME280;61288;53.446;-2.266;2022-09-13T06:03:31;101072.66;;;7.15;97.21
73101;BME280;61288;53.446;-2.266;2022-09-13T06:05:57;101073.53;;;7.14;97.01
73101;BME280;61288;53.446;-2.266;2022-09-13T06:08:27;101073.47;;;7.17;97.40
73101;BME280;61288;53.446;-2.266;2022-09-13T06:13:26;101072.56;;;7.19;97.42
73101;BME280;61288;53.446;-2.266;2022-09-13T06:15:54;101078.53;;;7.21;97.65
73101;BME280;61288;53.446;-2.266;2022-09-13T06:18:20;101083.78;;;7.17;96.79
73101;BME280;61288;53.446;-2.266;2022-09-13T06:20:46;101086.28;;;7.21;97.46
73101;BME280;61288;53.446;-2.266;2022-09-13T06:23:14;101095.66;;;7.24;97.31
73101;BME280;61288;53.446;-2.266;2022-09-13T06:25:40;101095.63;;;7.26;97.43
73101;BME280;61288;53.446;-2.266;2022-09-13T06:28:07;101102.34;;;7.33;97.92
73101;BME280;61288;53.446;-2.266;2022-09-13T06:30:32;101101.31;;;7.42;98.55
73101;BME280;61288;53.446;-2.266;2022-09-13T06:32:58;101108.03;;;7.50;99.09
73101;BME280;61288;53.446;-2.266;2022-09-13T06:35:24;101100.22;;;7.54;98.94
73101;BME280;61288;53.446;-2.266;2022-09-13T06:37:50;101092.50;;;7.54;98.11
73101;BME280;61288;53.446;-2.266;2022-09-13T06:40:19;101083.88;;;7.55;98.06
73101;BME280;61288;53.446;-2.266;2022-09-13T06:42:45;101094.88;;;7.61;98.32
73101;BME280;61288;53.446;-2.266;2022-09-13T06:45:10;101097.38;;;7.66;98.42
73101;BME280;61288;53.446;-2.266;2022-09-13T06:47:36;101093.03;;;7.68;98.44
73101;BME280;61288;53.446;-2.266;2022-09-13T06:50:01;101094.66;;;7.72;98.44
73101;BME280;61288;53.446;-2.266;2022-09-13T06:52:27;101097.09;;;7.78;98.74
73101;BME280;61288;53.446;-2.266;2022-09-13T06:54:53;101092.69;;;7.84;98.43
73101;BME280;61288;53.446;-2.266;2022-09-13T06:57:20;101100.34;;;7.87;98.46
73101;BME280;61288;53.446;-2.266;2022-09-13T06:59:46;101111.38;;;7.93;99.05
73101;BME280;61288;53.446;-2.266;2022-09-13T07:02:11;101107.81;;;7.99;99.07
73101;BME280;61288;53.446;-2.266;2022-09-13T07:04:38;101112.06;;;8.02;98.65
73101;BME280;61288;53.446;-2.266;2022-09-13T07:07:04;101098.22;;;8.04;98.69
73101;BME280;61288;53.446;-2.266;2022-09-13T07:09:30;101104.94;;;8.12;99.07
73101;BME280;61288;53.446;-2.266;2022-09-13T07:11:55;101104.81;;;8.18;99.31
73101;BME280;61288;53.446;-2.266;2022-09-13T07:14:26;101098.63;;;8.23;99.18
73101;BME280;61288;53.446;-2.266;2022-09-13T07:16:52;101092.56;;;8.26;99.24
73101;BME280;61288;53.446;-2.266;2022-09-13T07:19:23;101087.34;;;8.28;98.89
73101;BME280;61288;53.446;-2.266;2022-09-13T07:21:51;101082.06;;;8.32;99.03
73101;BME280;61288;53.446;-2.266;2022-09-13T07:24:17;101084.53;;;8.37;99.17
73101;BME280;61288;53.446;-2.266;2022-09-13T07:26:43;101087.75;;;8.47;99.60
73101;BME280;61288;53.446;-2.266;2022-09-13T07:29:13;101085.94;;;8.50;99.39
73101;BME280;61288;53.446;-2.266;2022-09-13T07:31:42;101083.19;;;8.57;99.03
73101;BME280;61288;53.446;-2.266;2022-09-13T07:34:14;101087.41;;;8.61;98.95
73101;BME280;61288;53.446;-2.266;2022-09-13T07:36:41;101091.63;;;8.65;99.17
73101;BME280;61288;53.446;-2.266;2022-09-13T07:39:06;101095.72;;;8.72;99.06
73101;BME280;61288;53.446;-2.266;2022-09-13T07:41:33;101086.09;;;8.79;99.19
73101;BME280;61288;53.446;-2.266;2022-09-13T07:44:00;101084.25;;;8.82;98.96
73101;BME280;61288;53.446;-2.266;2022-09-13T07:46:28;101091.00;;;8.88;98.94
73101;BME280;61288;53.446;-2.266;2022-09-13T07:48:57;101107.22;;;8.93;99.05
73101;BME280;61288;53.446;-2.266;2022-09-13T07:51:31;101114.72;;;9.03;99.25
73101;BME280;61288;53.446;-2.266;2022-09-13T07:53:59;101107.69;;;9.08;99.10
73101;BME280;61288;53.446;-2.266;2022-09-13T07:56:36;101102.38;;;9.14;99.37
73101;BME280;61288;53.446;-2.266;2022-09-13T07:59:05;101098.81;;;9.18;99.15
73101;BME280;61288;53.446;-2.266;2022-09-13T08:01:45;101104.59;;;9.27;99.23
73101;BME280;61288;53.446;-2.266;2022-09-13T08:04:13;101091.53;;;9.31;99.18
73101;BME280;61288;53.446;-2.266;2022-09-13T08:06:41;101111.09;;;9.40;99.03
73101;BME280;61288;53.446;-2.266;2022-09-13T08:09:09;101108.34;;;9.46;98.57
73101;BME280;61288;53.446;-2.266;2022-09-13T08:11:38;101097.94;;;9.48;98.56
73101;BME280;61288;53.446;-2.266;2022-09-13T08:14:05;101103.00;;;9.52;98.47
73101;BME280;61288;53.446;-2.266;2022-09-13T08:16:31;101106.19;;;9.61;98.56
73101;BME280;61288;53.446;-2.266;2022-09-13T08:19:00;101102.38;;;9.73;98.58
73101;BME280;61288;53.446;-2.266;2022-09-13T08:21:31;101103.69;;;9.86;98.50
73101;BME280;61288;53.446;-2.266;2022-09-13T08:23:57;101104.16;;;9.99;98.53
73101;BME280;61288;53.446;-2.266;2022-09-13T08:26:28;101101.22;;;10.10;98.19
73101;BME280;61288;53.446;-2.266;2022-09-13T08:28:56;101096.63;;;10.20;97.80
73101;BME280;61288;53.446;-2.266;2022-09-13T08:31:22;101097.16;;;10.30;97.71
73101;BME280;61288;53.446;-2.266;2022-09-13T08:33:48;101102.13;;;10.36;97.00
73101;BME280;61288;53.446;-2.266;2022-09-13T08:36:14;101097.47;;;10.47;96.65
73101;BME280;61288;53.446;-2.266;2022-09-13T08:38:48;101103.06;;;10.60;96.16
73101;BME280;61288;53.446;-2.266;2022-09-13T08:47:23;101092.44;;;10.93;96.63
73101;BME280;61288;53.446;-2.266;2022-09-13T08:49:58;101087.53;;;11.09;96.90
73101;BME280;61288;53.446;-2.266;2022-09-13T08:52:32;101096.63;;;11.21;95.44
73101;BME280;61288;53.446;-2.266;2022-09-13T08:55:07;101085.78;;;11.34;95.84
73101;BME280;61288;53.446;-2.266;2022-09-13T08:57:58;101087.19;;;11.43;94.73
73101;BME280;61288;53.446;-2.266;2022-09-13T09:00:36;101100.53;;;11.55;95.51
73101;BME280;61288;53.446;-2.266;2022-09-13T09:05:46;101100.25;;;11.85;94.79
73101;BME280;61288;53.446;-2.266;2022-09-13T09:08:36;101094.50;;;11.99;94.21
73101;BME280;61288;53.446;-2.266;2022-09-13T09:11:24;101097.59;;;12.09;92.18
73101;BME280;61288;53.446;-2.266;2022-09-13T09:14:31;101099.63;;;12.23;93.03
73101;BME280;61288;53.446;-2.266;2022-09-13T09:16:59;101104.66;;;12.28;89.26
73101;BME280;61288;53.446;-2.266;2022-09-13T09:22:02;101105.31;;;12.54;90.01
73101;BME280;61288;53.446;-2.266;2022-09-13T09:24:33;101103.81;;;12.69;89.90
73101;BME280;61288;53.446;-2.266;2022-09-13T09:27:01;101108.44;;;12.83;87.38
73101;BME280;61288;53.446;-2.266;2022-09-13T09:29:37;101095.72;;;12.96;87.83
73101;BME280;61288;53.446;-2.266;2022-09-13T09:37:22;101098.56;;;13.29;86.36
73101;BME280;61288;53.446;-2.266;2022-09-13T09:39:54;101103.09;;;13.45;84.71
73101;BME280;61288;53.446;-2.266;2022-09-13T09:42:27;101100.09;;;13.72;84.79
73101;BME280;61288;53.446;-2.266;2022-09-13T09:45:00;101102.16;;;13.84;83.67
73101;BME280;61288;53.446;-2.266;2022-09-13T09:47:30;101097.88;;;14.01;82.48
73101;BME280;61288;53.446;-2.266;2022-09-13T09:50:16;101108.06;;;14.06;84.00
73101;BME280;61288;53.446;-2.266;2022-09-13T09:55:31;101099.59;;;14.20;81.66
73101;BME280;61288;53.446;-2.266;2022-09-13T09:58:04;101097.75;;;14.22;82.44
73101;BME280;61288;53.446;-2.266;2022-09-13T10:00:32;101094.53;;;14.17;81.69
73101;BME280;61288;53.446;-2.266;2022-09-13T10:03:16;101089.47;;;14.13;82.46
73101;BME280;61288;53.446;-2.266;2022-09-13T10:05:42;101092.06;;;14.13;79.55
73101;BME280;61288;53.446;-2.266;2022-09-13T10:08:33;101092.91;;;14.14;82.75
73101;BME280;61288;53.446;-2.266;2022-09-13T10:11:00;101092.91;;;14.32;79.80
73101;BME280;61288;53.446;-2.266;2022-09-13T10:13:27;101081.53;;;14.50;81.41
73101;BME280;61288;53.446;-2.266;2022-09-13T10:15:58;101077.63;;;14.59;80.99
73101;BME280;61288;53.446;-2.266;2022-09-13T10:18:26;101086.81;;;14.66;78.27
73101;BME280;61288;53.446;-2.266;2022-09-13T10:23:43;101072.72;;;14.70;77.91
73101;BME280;61288;53.446;-2.266;2022-09-13T10:26:13;101077.88;;;14.72;77.38
73101;BME280;61288;53.446;-2.266;2022-09-13T10:31:18;101079.09;;;14.65;77.87
73101;BME280;61288;53.446;-2.266;2022-09-13T10:34:02;101078.38;;;14.61;75.45
73101;BME280;61288;53.446;-2.266;2022-09-13T10:36:32;101084.19;;;14.66;76.19
73101;BME280;61288;53.446;-2.266;2022-09-13T10:41:30;101072.47;;;14.57;73.60
73101;BME280;61288;53.446;-2.266;2022-09-13T10:43:58;101083.09;;;14.72;76.87
73101;BME280;61288;53.446;-2.266;2022-09-13T10:46:24;101074.16;;;14.94;77.00
73101;BME280;61288;53.446;-2.266;2022-09-13T10:48:51;101076.00;;;15.08;76.27
73101;BME280;61288;53.446;-2.266;2022-09-13T10:54:07;101083.94;;;15.38;74.62
73101;BME280;61288;53.446;-2.266;2022-09-13T10:56:32;101080.16;;;15.60;74.11
73101;BME280;61288;53.446;-2.266;2022-09-13T10:59:15;101076.59;;;15.77;73.55
73101;BME280;61288;53.446;-2.266;2022-09-13T11:05:00;101074.28;;;15.87;69.67
73101;BME280;61288;53.446;-2.266;2022-09-13T11:08:34;101066.25;;;16.06;71.82
73101;BME280;61288;53.446;-2.266;2022-09-13T11:26:43;101046.38;;;16.03;70.13
73101;BME280;61288;53.446;-2.266;2022-09-13T11:29:32;101047.75;;;15.95;69.73
73101;BME280;61288;53.446;-2.266;2022-09-13T11:34:44;101035.03;;;15.72;69.09
73101;BME280;61288;53.446;-2.266;2022-09-13T11:40:48;101032.09;;;15.63;71.42
73101;BME280;61288;53.446;-2.266;2022-09-13T11:49:00;101031.78;;;15.53;70.33
73101;BME280;61288;53.446;-2.266;2022-09-13T11:57:12;101022.66;;;15.76;70.87
73101;BME280;61288;53.446;-2.266;2022-09-13T11:59:51;101023.72;;;15.88;71.33
73101;BME280;61288;53.446;-2.266;2022-09-13T12:05:03;101030.25;;;16.11;70.71
73101;BME280;61288;53.446;-2.266;2022-09-13T12:07:36;101019.06;;;16.09;69.19
73101;BME280;61288;53.446;-2.266;2022-09-13T12:10:24;101027.03;;;16.06;69.49
73101;BME280;61288;53.446;-2.266;2022-09-13T12:12:52;101018.94;;;16.11;70.13
73101;BME280;61288;53.446;-2.266;2022-09-13T12:17:55;101006.13;;;16.06;71.84
73101;BME280;61288;53.446;-2.266;2022-09-13T12:20:42;101010.66;;;16.19;70.16
73101;BME280;61288;53.446;-2.266;2022-09-13T12:23:17;101010.09;;;16.28;69.22
73101;BME280;61288;53.446;-2.266;2022-09-13T12:25:49;100998.00;;;16.41;67.15
73101;BME280;61288;53.446;-2.266;2022-09-13T12:28:38;100999.72;;;16.55;70.84
73101;BME280;61288;53.446;-2.266;2022-09-13T12:31:12;101003.22;;;16.56;65.71
73101;BME280;61288;53.446;-2.266;2022-09-13T12:33:41;101007.69;;;16.68;66.92
73101;BME280;61288;53.446;-2.266;2022-09-13T12:36:38;101002.97;;;17.02;66.52
73101;BME280;61288;53.446;-2.266;2022-09-13T12:39:18;101009.50;;;17.24;68.71
73101;BME280;61288;53.446;-2.266;2022-09-13T12:42:13;101004.94;;;17.13;66.93
73101;BME280;61288;53.446;-2.266;2022-09-13T12:45:29;100992.81;;;16.98;66.77
73101;BME280;61288;53.446;-2.266;2022-09-13T12:50:44;100993.78;;;17.24;68.18
73101;BME280;61288;53.446;-2.266;2022-09-13T12:53:33;101001.41;;;17.42;68.04
73101;BME280;61288;53.446;-2.266;2022-09-13T12:59:18;100985.91;;;17.52;63.59
73101;BME280;61288;53.446;-2.266;2022-09-13T13:01:49;100990.06;;;17.95;66.72
73101;BME280;61288;53.446;-2.266;2022-09-13T13:04:22;100991.28;;;18.03;64.58
73101;BME280;61288;53.446;-2.266;2022-09-13T13:07:18;100985.53;;;18.11;66.34
73101;BME280;61288;53.446;-2.266;2022-09-13T13:09:47;100987.28;;;18.24;65.42
73101;BME280;61288;53.446;-2.266;2022-09-13T13:12:30;100980.06;;;18.27;62.88
73101;BME280;61288;53.446;-2.266;2022-09-13T13:14:58;100981.31;;;18.22;62.62
73101;BME280;61288;53.446;-2.266;2022-09-13T13:34:01;100967.13;;;17.98;65.08
73101;BME280;61288;53.446;-2.266;2022-09-13T13:36:29;100971.94;;;17.92;65.75
73101;BME280;61288;53.446;-2.266;2022-09-13T13:38:59;100960.06;;;17.86;62.69
73101;BME280;61288;53.446;-2.266;2022-09-13T13:43:57;100952.75;;;17.78;65.64
73101;BME280;61288;53.446;-2.266;2022-09-13T13:46:31;100956.19;;;17.79;65.50
73101;BME280;61288;53.446;-2.266;2022-09-13T13:57:39;100947.13;;;18.10;65.99
73101;BME280;61288;53.446;-2.266;2022-09-13T14:00:20;100938.63;;;18.32;62.74
73101;BME280;61288;53.446;-2.266;2022-09-13T14:03:21;100949.81;;;18.60;60.52
73101;BME280;61288;53.446;-2.266;2022-09-13T14:08:50;100950.34;;;18.53;64.14
73101;BME280;61288;53.446;-2.266;2022-09-13T14:19:29;100950.25;;;18.91;61.22
73101;BME280;61288;53.446;-2.266;2022-09-13T14:22:24;100946.25;;;18.86;61.35
73101;BME280;61288;53.446;-2.266;2022-09-13T14:25:12;100947.66;;;18.79;61.91
73101;BME280;61288;53.446;-2.266;2022-09-13T14:27:39;100948.19;;;18.71;60.09
73101;BME280;61288;53.446;-2.266;2022-09-13T14:32:45;100944.28;;;18.76;63.31
73101;BME280;61288;53.446;-2.266;2022-09-13T14:35:31;100941.19;;;18.96;63.71
73101;BME280;61288;53.446;-2.266;2022-09-13T14:38:19;100931.31;;;18.99;63.78
73101;BME280;61288;53.446;-2.266;2022-09-13T14:40:49;100935.50;;;19.02;62.91
73101;BME280;61288;53.446;-2.266;2022-09-13T14:43:20;100930.00;;;18.81;59.07
73101;BME280;61288;53.446;-2.266;2022-09-13T14:45:49;100928.06;;;18.58;60.15
73101;BME280;61288;53.446;-2.266;2022-09-13T14:48:18;100927.16;;;18.46;62.65
73101;BME280;61288;53.446;-2.266;2022-09-13T14:50:51;100929.06;;;18.44;64.06
73101;BME280;61288;53.446;-2.266;2022-09-13T14:53:23;100926.31;;;18.33;61.68
73101;BME280;61288;53.446;-2.266;2022-09-13T14:55:59;100914.38;;;18.29;62.63
73101;BME280;61288;53.446;-2.266;2022-09-13T14:58:53;100913.56;;;18.28;64.72
73101;BME280;61288;53.446;-2.266;2022-09-13T15:01:25;100916.38;;;18.25;62.77
73101;BME280;61288;53.446;-2.266;2022-09-13T15:03:55;100919.75;;;18.27;63.87
73101;BME280;61288;53.446;-2.266;2022-09-13T15:06:26;100921.06;;;18.46;63.04
73101;BME280;61288;53.446;-2.266;2022-09-13T15:08:59;100931.41;;;18.73;64.27
73101;BME280;61288;53.446;-2.266;2022-09-13T15:11:33;100921.84;;;18.97;64.80
73101;BME280;61288;53.446;-2.266;2022-09-13T15:14:29;100925.53;;;19.18;64.78
73101;BME280;61288;53.446;-2.266;2022-09-13T15:17:14;100924.00;;;19.16;63.04
73101;BME280;61288;53.446;-2.266;2022-09-13T15:19:41;100928.22;;;19.05;61.21
73101;BME280;61288;53.446;-2.266;2022-09-13T15:22:43;100924.31;;;18.87;60.19
73101;BME280;61288;53.446;-2.266;2022-09-13T15:25:24;100918.66;;;18.80;59.78
73101;BME280;61288;53.446;-2.266;2022-09-13T15:27:53;100913.13;;;18.72;63.17
73101;BME280;61288;53.446;-2.266;2022-09-13T15:30:22;100906.00;;;18.61;61.55
73101;BME280;61288;53.446;-2.266;2022-09-13T15:32:48;100906.22;;;18.58;62.23
73101;BME280;61288;53.446;-2.266;2022-09-13T15:35:25;100905.31;;;18.46;62.93
73101;BME280;61288;53.446;-2.266;2022-09-13T15:38:07;100908.69;;;18.35;63.58
73101;BME280;61288;53.446;-2.266;2022-09-13T15:40:45;100910.16;;;18.39;63.41
73101;BME280;61288;53.446;-2.266;2022-09-13T15:43:11;100914.06;;;18.33;63.35
73101;BME280;61288;53.446;-2.266;2022-09-13T15:45:36;100909.84;;;18.31;64.24
73101;BME280;61288;53.446;-2.266;2022-09-13T15:48:02;100913.56;;;18.28;64.13
73101;BME280;61288;53.446;-2.266;2022-09-13T15:50:30;100909.03;;;18.30;64.10
73101;BME280;61288;53.446;-2.266;2022-09-13T15:52:58;100909.13;;;18.29;63.48
73101;BME280;61288;53.446;-2.266;2022-09-13T15:55:26;100909.63;;;18.34;63.16
73101;BME280;61288;53.446;-2.266;2022-09-13T15:57:52;100905.34;;;18.33;63.09
73101;BME280;61288;53.446;-2.266;2022-09-13T16:00:23;100907.44;;;18.28;62.26
73101;BME280;61288;53.446;-2.266;2022-09-13T16:02:50;100906.31;;;18.19;62.96
73101;BME280;61288;53.446;-2.266;2022-09-13T16:05:16;100902.84;;;18.18;65.53
73101;BME280;61288;53.446;-2.266;2022-09-13T16:07:42;100900.22;;;18.18;64.46
73101;BME280;61288;53.446;-2.266;2022-09-13T16:10:17;100900.44;;;18.15;64.88
73101;BME280;61288;53.446;-2.266;2022-09-13T16:12:44;100890.06;;;18.14;63.95
73101;BME280;61288;53.446;-2.266;2022-09-13T16:15:10;100890.91;;;18.14;62.74
73101;BME280;61288;53.446;-2.266;2022-09-13T16:17:37;100889.22;;;18.13;64.19